Good Hope, IL

3:08 AM CST on February 12, 2016 (GMT -0600)
Macomb Municipal

Weather History for KMQB - February, 2013

Change the Weather History Date:

Friday, February 1, 2013

  Actual Average (KBRL) Record (KBRL)
Temperature  
Mean Temperature 11 °F 27 °F  
Max Temperature 23 °F 36 °F 61 °F (1911)
Min Temperature 1 °F 18 °F -14 °F (1951)
Degree Days  
Heating Degree Days 54 38  
Month to date heating degree days 38  
Since 1 July heating degree days 3439  
Cooling Degree Days 0 0  
Month to date cooling degree days 0  
Year to date cooling degree days 0  
Moisture  
Dew Point 3 °F    
Average Humidity 72    
Maximum Humidity 88    
Minimum Humidity 61    
Precipitation  
Precipitation 0.00 in 0.05 in 0.39 in (2014)
Month to date precipitation 0.05  
Year to date precipitation 1.29  
Sea Level Pressure  
Sea Level Pressure 30.35 in    
Wind  
Wind Speed 14 mph (WSW)    
Max Wind Speed 23 mph    
Max Gust Speed 28 mph    
Visibility 10 miles    
Events Snow    
T = Trace of Precipitation, MM = Missing Value Source: NWS Daily Summary

Daily Weather History Graph

Daily Weather History Graph

Search for Another Location

Airport or City:

Trip Planner

Search our weather history database for the weather conditions in past years. The results will help you decide how hot, cold, wet, or windy it might be!

Date:

Astronomy

Feb. 01, 2013 Rise Set
Actual Time 7:11 AM CST 5:21 PM CST
Civil Twilight 6:43 AM CST 5:49 PM CST
Nautical Twilight 6:10 AM CST 6:22 PM CST
Astronomical Twilight 5:38 AM CST 6:54 PM CST
Moon 11:30 PM CST (2/1) 9:43 AM CST (2/1)
Length of Visible Light 11h 06m
Length of Day
10h 09m
Waning Gibbous, 70% of the Moon is Illuminated
Feb 1
Waning Gibbous
Feb 3
Last Quarter
Feb 10
New
Feb 17
First Quarter
Feb 25
Full

Hourly Weather History & Observations

Time (CST) Temp. Windchill Dew Point Humidity Pressure Visibility Wind Dir Wind Speed Gust Speed Precip Events Conditions
12:15 AM 5.9 °F -13.0 °F -0.6 °F 75% 30.36 in 10.0 mi WNW 17.3 mph 27.6 mph N/A   Overcast
12:35 AM 5.7 °F -14.3 °F -1.3 °F 73% 30.36 in 10.0 mi WNW 19.6 mph - N/A   Overcast
12:55 AM 5.5 °F -12.9 °F -1.5 °F 73% 30.37 in 10.0 mi WNW 16.1 mph - N/A   Overcast
1:15 AM 5.4 °F -13.7 °F -1.7 °F 73% 30.38 in 10.0 mi WNW 17.3 mph 26.5 mph N/A   Overcast
1:35 AM 5.0 °F -16.7 °F -1.7 °F 74% 30.38 in 10.0 mi West 23.0 mph 26.5 mph N/A   Overcast
1:55 AM 5.0 °F -16.7 °F -1.7 °F 74% 30.39 in 10.0 mi West 23.0 mph 26.5 mph N/A   Overcast
2:15 AM 4.8 °F -16.0 °F -1.5 °F 75% 30.39 in 10.0 mi WNW 20.7 mph 26.5 mph N/A   Overcast
2:35 AM 4.5 °F -14.3 °F -1.8 °F 75% 30.39 in 10.0 mi WNW 16.1 mph 20.7 mph N/A   Mostly Cloudy
2:55 AM 4.1 °F -16.4 °F -2.2 °F 75% 30.39 in 10.0 mi WNW 19.6 mph - N/A   Mostly Cloudy
3:15 AM 3.7 °F -14.6 °F -2.4 °F 76% 30.39 in 10.0 mi WNW 15.0 mph 19.6 mph N/A   Scattered Clouds
3:35 AM 3.6 °F -13.4 °F -3.1 °F 74% 30.39 in 10.0 mi WNW 12.7 mph - N/A   Clear
3:55 AM 3.4 °F -15.7 °F -2.6 °F 76% 30.39 in 10.0 mi WNW 16.1 mph - N/A   Clear
4:15 AM 3.2 °F -16.5 °F -3.1 °F 75% 30.39 in 10.0 mi WNW 17.3 mph - N/A   Clear
4:35 AM 3.0 °F -14.8 °F -2.9 °F 76% 30.40 in 10.0 mi WNW 13.8 mph - N/A   Clear
4:55 AM 2.7 °F -16.0 °F -3.3 °F 76% 30.40 in 10.0 mi WNW 15.0 mph - N/A   Clear
5:15 AM 2.3 °F -14.2 °F -3.5 °F 77% 30.41 in 10.0 mi WNW 11.5 mph 20.7 mph N/A   Clear
5:35 AM 2.3 °F -16.4 °F -3.5 °F 77% 30.41 in 10.0 mi WNW 15.0 mph - N/A   Clear
5:55 AM 1.9 °F -16.2 °F -4.0 °F 76% 30.41 in 10.0 mi WNW 13.8 mph - N/A   Clear
6:15 AM 1.8 °F -15.7 °F -4.2 °F 76% 30.42 in 10.0 mi West 12.7 mph - N/A   Clear
6:35 AM 1.4 °F -16.9 °F -4.2 °F 77% 30.42 in 10.0 mi WNW 13.8 mph 17.3 mph N/A   Clear
6:55 AM 1.4 °F -15.3 °F -4.4 °F 77% 30.43 in 10.0 mi West 11.5 mph - N/A   Clear
7:15 AM 1.2 °F -15.6 °F -4.2 °F 78% 30.43 in 10.0 mi WNW 11.5 mph - N/A   Clear
7:35 AM 1.2 °F -15.6 °F -4.7 °F 76% 30.43 in 10.0 mi WNW 11.5 mph - N/A   Clear
7:55 AM 1.4 °F -16.1 °F -4.9 °F 75% 30.44 in 10.0 mi West 12.7 mph - N/A   Clear
8:15 AM 1.9 °F -15.5 °F -4.5 °F 74% 30.44 in 10.0 mi WNW 12.7 mph - N/A   Clear
8:35 AM 2.3 °F -14.2 °F -4.5 °F 73% 30.44 in 10.0 mi WNW 11.5 mph - N/A   Clear
8:55 AM 3.2 °F -13.1 °F -3.5 °F 74% 30.45 in 10.0 mi West 11.5 mph - N/A   Scattered Clouds
9:15 AM 3.4 °F -13.6 °F -3.3 °F 74% 30.45 in 10.0 mi West 12.7 mph - N/A   Scattered Clouds
9:35 AM 4.1 °F -11.1 °F -3.1 °F 72% 30.45 in 10.0 mi West 10.4 mph - N/A   Scattered Clouds
9:55 AM 5.2 °F -7.9 °F -2.2 °F 72% 30.45 in 10.0 mi WNW 8.1 mph - N/A   Scattered Clouds
10:15 AM 5.4 °F -9.6 °F -2.4 °F 70% 30.45 in 10.0 mi West 10.4 mph - N/A   Clear
10:35 AM 6.3 °F -4.1 °F -1.7 °F 70% 30.45 in 10.0 mi WNW 5.8 mph - N/A   Clear
10:55 AM 7.3 °F -2.8 °F -0.9 °F 69% 30.45 in 10.0 mi WNW 5.8 mph - N/A   Clear
11:15 AM 7.9 °F -4.6 °F -0.9 °F 67% 30.45 in 10.0 mi West 8.1 mph - N/A   Clear
11:35 AM 9.0 °F -0.9 °F 0.5 °F 69% 30.44 in 10.0 mi West 5.8 mph - N/A   Clear
11:55 AM 10.4 °F -3.3 °F 1.8 °F 68% 30.43 in 10.0 mi WSW 10.4 mph - N/A   Clear
12:15 PM 11.1 °F -1.6 °F 1.9 °F 67% 30.42 in 10.0 mi WSW 9.2 mph - N/A   Clear
12:35 PM 12.6 °F 3.4 °F 2.7 °F 65% 30.41 in 10.0 mi West 5.8 mph - N/A   Clear
12:55 PM 13.5 °F 1.3 °F 3.4 °F 64% 30.39 in 10.0 mi West 9.2 mph - N/A   Clear
1:15 PM 13.1 °F 7.1 °F 2.1 °F 62% 30.37 in 10.0 mi SSW 3.5 mph - N/A   Clear
1:35 PM 14.7 °F 2.1 °F 3.9 °F 62% 30.37 in 10.0 mi SW 10.4 mph - N/A   Clear
1:55 PM 15.3 °F 2.0 °F 6.1 °F 67% 30.37 in 10.0 mi WSW 11.5 mph - N/A   Mostly Cloudy
2:15 PM 15.6 °F 1.8 °F 5.5 °F 64% 30.36 in 10.0 mi WSW 12.7 mph - N/A   Overcast
2:35 PM 15.8 °F 2.7 °F 5.5 °F 64% 30.35 in 10.0 mi SW 11.5 mph - N/A   Overcast
2:55 PM 16.2 °F 3.9 °F 5.7 °F 64% 30.34 in 10.0 mi SW 10.4 mph - N/A   Overcast
3:15 PM 16.0 °F 2.9 °F 5.5 °F 63% 30.34 in 10.0 mi WSW 11.5 mph - N/A   Overcast
3:35 PM 16.3 °F 4.1 °F 5.4 °F 62% 30.33 in 10.0 mi SW 10.4 mph - N/A   Overcast
3:55 PM 16.5 °F 5.1 °F 5.7 °F 63% 30.33 in 10.0 mi SW 9.2 mph - N/A   Overcast
4:15 PM 16.7 °F 3.8 °F 6.3 °F 64% 30.33 in 10.0 mi WSW 11.5 mph - N/A   Overcast
4:35 PM 17.1 °F 5.8 °F 6.3 °F 63% 30.32 in 10.0 mi SW 9.2 mph - N/A   Overcast
4:55 PM 17.2 °F 6.0 °F 5.7 °F 61% 30.31 in 10.0 mi SW 9.2 mph - N/A   Overcast
5:15 PM 17.6 °F 5.7 °F 6.6 °F 62% 30.30 in 10.0 mi SSW 10.4 mph - N/A   Overcast
5:35 PM 18.0 °F 6.9 °F 7.2 °F 63% 30.30 in 10.0 mi SSW 9.2 mph - N/A   Overcast
5:55 PM 18.5 °F 8.4 °F 7.5 °F 62% 30.29 in 10.0 mi SSW 8.1 mph - N/A   Overcast
6:15 PM 18.5 °F 9.3 °F 7.9 °F 63% 30.28 in 10.0 mi South 6.9 mph - N/A   Overcast
6:35 PM 18.9 °F 7.2 °F 9.1 °F 66% 30.28 in 10.0 mi South 10.4 mph - N/A   Overcast
6:55 PM 19.2 °F 8.4 °F 8.6 °F 63% 30.27 in 10.0 mi South 9.2 mph - N/A   Overcast
7:15 PM 19.4 °F 8.6 °F 9.0 °F 64% 30.26 in 10.0 mi South 9.2 mph - N/A   Overcast
7:35 PM 19.4 °F 7.2 °F 9.9 °F 66% 30.24 in 10.0 mi South 11.5 mph - N/A   Overcast
7:55 PM 19.4 °F 7.2 °F 10.4 °F 68% 30.23 in 10.0 mi South 11.5 mph - N/A   Overcast
8:15 PM 19.9 °F 9.3 °F 10.4 °F 67% 30.22 in 10.0 mi South 9.2 mph - N/A   Overcast
8:35 PM 20.3 °F 8.3 °F 10.8 °F 67% 30.22 in 10.0 mi South 11.5 mph - N/A   Overcast
8:55 PM 21.0 °F 8.1 °F 11.5 °F 67% 30.21 in 10.0 mi South 13.8 mph 19.6 mph N/A   Overcast
9:15 PM 20.8 °F 8.4 °F 13.8 °F 74% 30.21 in 10.0 mi SSW 12.7 mph - N/A   Overcast
9:35 PM 20.8 °F 7.3 °F 14.9 °F 78% 30.20 in 10.0 mi SSW 15.0 mph - N/A   Overcast
9:55 PM 21.2 °F 7.8 °F 17.6 °F 86% 30.19 in 10.0 mi SSW 15.0 mph - N/A   Overcast
10:15 PM 21.2 °F 7.3 °F 17.6 °F 86% 30.19 in 7.0 mi South 16.1 mph 20.7 mph N/A Snow Light Snow
10:35 PM 21.0 °F 7.1 °F 18.0 °F 88% 30.18 in 4.0 mi SSW 16.1 mph 21.9 mph N/A Snow Light Snow
10:55 PM 21.2 °F 10.1 °F 18.1 °F 88% 30.20 in 10.0 mi SW 10.4 mph - N/A   Overcast
11:15 PM 21.6 °F 9.9 °F 18.3 °F 87% 30.20 in 10.0 mi SSW 11.5 mph 16.1 mph N/A   Overcast
11:35 PM 21.9 °F 11.7 °F 18.3 °F 86% 30.19 in 10.0 mi SSW 9.2 mph - N/A   Overcast
11:55 PM 23.0 °F 13.9 °F 19.4 °F 86% 30.18 in 10.0 mi SSW 8.1 mph - N/A   Overcast